sensor_id;sensor_type;location;lat;lon;timestamp;pressure;altitude;pressure_sealevel;temperature;humidity
65872;BME280;52653;50.080;21.992;2023-08-30T00:02:29;98003.05;;;18.45;100.00
65872;BME280;52653;50.080;21.992;2023-08-30T00:05:23;97994.30;;;18.49;100.00
65872;BME280;52653;50.080;21.992;2023-08-30T00:08:15;97988.01;;;18.50;100.00
65872;BME280;52653;50.080;21.992;2023-08-30T00:11:00;97989.19;;;18.51;100.00
65872;BME280;52653;50.080;21.992;2023-08-30T00:14:01;97987.50;;;18.52;100.00
65872;BME280;52653;50.080;21.992;2023-08-30T00:16:45;97982.66;;;18.53;100.00
65872;BME280;52653;50.080;21.992;2023-08-30T00:19:20;97980.89;;;18.50;100.00
65872;BME280;52653;50.080;21.992;2023-08-30T00:22:13;97976.05;;;18.48;100.00
65872;BME280;52653;50.080;21.992;2023-08-30T00:24:47;97976.48;;;18.47;100.00
65872;BME280;52653;50.080;21.992;2023-08-30T00:27:21;97967.91;;;18.45;100.00
65872;BME280;52653;50.080;21.992;2023-08-30T00:30:10;97968.08;;;18.42;100.00
65872;BME280;52653;50.080;21.992;2023-08-30T00:32:47;97967.82;;;18.37;100.00
65872;BME280;52653;50.080;21.992;2023-08-30T00:35:31;97969.63;;;18.34;100.00
65872;BME280;52653;50.080;21.992;2023-08-30T00:38:07;97973.09;;;18.33;100.00
65872;BME280;52653;50.080;21.992;2023-08-30T00:40:54;97971.31;;;18.32;100.00
65872;BME280;52653;50.080;21.992;2023-08-30T00:43:35;97970.83;;;18.32;100.00
65872;BME280;52653;50.080;21.992;2023-08-30T00:46:17;97962.92;;;18.30;100.00
65872;BME280;52653;50.080;21.992;2023-08-30T00:49:10;97960.98;;;18.30;100.00
65872;BME280;52653;50.080;21.992;2023-08-30T00:51:44;97951.71;;;18.31;100.00
65872;BME280;52653;50.080;21.992;2023-08-30T00:54:26;97948.86;;;18.31;100.00
65872;BME280;52653;50.080;21.992;2023-08-30T00:57:11;97944.90;;;18.32;100.00
65872;BME280;52653;50.080;21.992;2023-08-30T00:59:48;97941.64;;;18.33;100.00
65872;BME280;52653;50.080;21.992;2023-08-30T01:02:42;97941.58;;;18.34;100.00
65872;BME280;52653;50.080;21.992;2023-08-30T01:05:19;97936.77;;;18.34;100.00
65872;BME280;52653;50.080;21.992;2023-08-30T01:08:05;97933.88;;;18.32;100.00
65872;BME280;52653;50.080;21.992;2023-08-30T01:10:50;97937.22;;;18.33;100.00
65872;BME280;52653;50.080;21.992;2023-08-30T01:13:36;97945.87;;;18.31;100.00
65872;BME280;52653;50.080;21.992;2023-08-30T01:16:31;97951.25;;;18.29;100.00
65872;BME280;52653;50.080;21.992;2023-08-30T01:19:36;97953.54;;;18.30;100.00
65872;BME280;52653;50.080;21.992;2023-08-30T01:22:19;97952.70;;;18.32;100.00
65872;BME280;52653;50.080;21.992;2023-08-30T01:25:15;97953.42;;;18.35;100.00
65872;BME280;52653;50.080;21.992;2023-08-30T01:27:53;97953.88;;;18.36;100.00
65872;BME280;52653;50.080;21.992;2023-08-30T01:30:35;97959.43;;;18.38;100.00
65872;BME280;52653;50.080;21.992;2023-08-30T01:33:13;97964.73;;;18.38;100.00
65872;BME280;52653;50.080;21.992;2023-08-30T01:36:08;97970.20;;;18.39;100.00
65872;BME280;52653;50.080;21.992;2023-08-30T01:39:01;97970.83;;;18.40;100.00
65872;BME280;52653;50.080;21.992;2023-08-30T01:41:50;97968.33;;;18.40;100.00
65872;BME280;52653;50.080;21.992;2023-08-30T01:44:51;97970.13;;;18.40;100.00
65872;BME280;52653;50.080;21.992;2023-08-30T01:47:41;97970.20;;;18.42;100.00
65872;BME280;52653;50.080;21.992;2023-08-30T01:50:35;97974.77;;;18.43;100.00
65872;BME280;52653;50.080;21.992;2023-08-30T01:53:30;97974.54;;;18.44;100.00
65872;BME280;52653;50.080;21.992;2023-08-30T01:56:07;97975.56;;;18.45;100.00
65872;BME280;52653;50.080;21.992;2023-08-30T01:58:43;97970.35;;;18.46;100.00
65872;BME280;52653;50.080;21.992;2023-08-30T02:01:38;97959.23;;;18.47;100.00
65872;BME280;52653;50.080;21.992;2023-08-30T02:04:12;97962.87;;;18.49;100.00
65872;BME280;52653;50.080;21.992;2023-08-30T02:06:57;97959.73;;;18.51;100.00
65872;BME280;52653;50.080;21.992;2023-08-30T02:09:45;97955.66;;;18.53;100.00
65872;BME280;52653;50.080;21.992;2023-08-30T02:12:46;97953.98;;;18.55;100.00
65872;BME280;52653;50.080;21.992;2023-08-30T02:15:28;97954.95;;;18.57;100.00
65872;BME280;52653;50.080;21.992;2023-08-30T02:18:16;97951.59;;;18.59;100.00
65872;BME280;52653;50.080;21.992;2023-08-30T02:20:51;97955.23;;;18.61;100.00
65872;BME280;52653;50.080;21.992;2023-08-30T02:23:34;97950.89;;;18.62;100.00
65872;BME280;52653;50.080;21.992;2023-08-30T02:26:27;97949.39;;;18.63;100.00
65872;BME280;52653;50.080;21.992;2023-08-30T02:29:12;97945.75;;;18.65;100.00
65872;BME280;52653;50.080;21.992;2023-08-30T02:32:05;97941.73;;;18.67;100.00
65872;BME280;52653;50.080;21.992;2023-08-30T02:34:38;97943.42;;;18.68;100.00
65872;BME280;52653;50.080;21.992;2023-08-30T02:37:30;97938.79;;;18.69;100.00
65872;BME280;52653;50.080;21.992;2023-08-30T02:40:17;97927.86;;;18.70;100.00
65872;BME280;52653;50.080;21.992;2023-08-30T02:43:12;97924.20;;;18.69;100.00
65872;BME280;52653;50.080;21.992;2023-08-30T02:46:05;97921.23;;;18.69;100.00
65872;BME280;52653;50.080;21.992;2023-08-30T02:48:59;97924.09;;;18.68;100.00
65872;BME280;52653;50.080;21.992;2023-08-30T02:51:51;97924.05;;;18.69;100.00
65872;BME280;52653;50.080;21.992;2023-08-30T02:54:45;97922.66;;;18.71;100.00
65872;BME280;52653;50.080;21.992;2023-08-30T02:57:38;97924.83;;;18.73;100.00
65872;BME280;52653;50.080;21.992;2023-08-30T03:00:31;97930.79;;;18.74;100.00
65872;BME280;52653;50.080;21.992;2023-08-30T03:03:25;97931.32;;;18.74;100.00
65872;BME280;52653;50.080;21.992;2023-08-30T03:06:11;97932.48;;;18.76;100.00
65872;BME280;52653;50.080;21.992;2023-08-30T03:09:07;97933.77;;;18.75;100.00
65872;BME280;52653;50.080;21.992;2023-08-30T03:11:50;97941.41;;;18.75;100.00
65872;BME280;52653;50.080;21.992;2023-08-30T03:14:35;97952.55;;;18.76;100.00
65872;BME280;52653;50.080;21.992;2023-08-30T03:17:29;97956.14;;;18.75;100.00
65872;BME280;52653;50.080;21.992;2023-08-30T03:20:24;97953.65;;;18.75;100.00
65872;BME280;52653;50.080;21.992;2023-08-30T03:23:17;97962.39;;;18.78;100.00
65872;BME280;52653;50.080;21.992;2023-08-30T03:25:51;97965.86;;;18.79;100.00
65872;BME280;52653;50.080;21.992;2023-08-30T03:28:45;97968.89;;;18.79;100.00
65872;BME280;52653;50.080;21.992;2023-08-30T03:31:38;97979.11;;;18.80;100.00
65872;BME280;52653;50.080;21.992;2023-08-30T03:34:31;97985.83;;;18.81;100.00
65872;BME280;52653;50.080;21.992;2023-08-30T03:37:03;97987.86;;;18.83;100.00
65872;BME280;52653;50.080;21.992;2023-08-30T03:39:57;97986.51;;;18.85;100.00
65872;BME280;52653;50.080;21.992;2023-08-30T03:42:44;97988.56;;;18.86;100.00
65872;BME280;52653;50.080;21.992;2023-08-30T03:45:38;97993.59;;;18.88;100.00
65872;BME280;52653;50.080;21.992;2023-08-30T03:48:31;97990.81;;;18.89;100.00
65872;BME280;52653;50.080;21.992;2023-08-30T03:51:23;97996.24;;;18.91;100.00
65872;BME280;52653;50.080;21.992;2023-08-30T03:54:06;97993.68;;;18.92;100.00
65872;BME280;52653;50.080;21.992;2023-08-30T03:56:59;97988.48;;;18.93;100.00
65872;BME280;52653;50.080;21.992;2023-08-30T03:59:52;97986.87;;;18.93;100.00
65872;BME280;52653;50.080;21.992;2023-08-30T04:02:45;97985.00;;;18.95;100.00
65872;BME280;52653;50.080;21.992;2023-08-30T04:05:39;97984.83;;;18.95;100.00
65872;BME280;52653;50.080;21.992;2023-08-30T04:08:31;97984.02;;;18.96;100.00
65872;BME280;52653;50.080;21.992;2023-08-30T04:11:27;97986.02;;;18.98;100.00
65872;BME280;52653;50.080;21.992;2023-08-30T04:14:20;97983.48;;;18.99;100.00
65872;BME280;52653;50.080;21.992;2023-08-30T04:17:15;97981.58;;;19.01;100.00
65872;BME280;52653;50.080;21.992;2023-08-30T04:20:10;97983.21;;;19.03;100.00
65872;BME280;52653;50.080;21.992;2023-08-30T04:23:03;97980.73;;;19.06;100.00
65872;BME280;52653;50.080;21.992;2023-08-30T04:25:56;97975.20;;;19.09;100.00
65872;BME280;52653;50.080;21.992;2023-08-30T04:28:49;97971.69;;;19.11;100.00
65872;BME280;52653;50.080;21.992;2023-08-30T04:31:44;97976.90;;;19.14;100.00
65872;BME280;52653;50.080;21.992;2023-08-30T04:34:37;97982.02;;;19.14;100.00
65872;BME280;52653;50.080;21.992;2023-08-30T04:37:31;97986.86;;;19.16;100.00
65872;BME280;52653;50.080;21.992;2023-08-30T04:40:24;97983.40;;;19.17;100.00
65872;BME280;52653;50.080;21.992;2023-08-30T04:43:16;97977.29;;;19.19;100.00
65872;BME280;52653;50.080;21.992;2023-08-30T04:46:02;97977.33;;;19.21;100.00
65872;BME280;52653;50.080;21.992;2023-08-30T04:48:55;97968.34;;;19.22;100.00
65872;BME280;52653;50.080;21.992;2023-08-30T04:51:48;97969.69;;;19.24;100.00
65872;BME280;52653;50.080;21.992;2023-08-30T04:54:41;97971.71;;;19.25;100.00
65872;BME280;52653;50.080;21.992;2023-08-30T04:57:34;97971.40;;;19.27;100.00
65872;BME280;52653;50.080;21.992;2023-08-30T05:00:27;97967.66;;;19.30;100.00
65872;BME280;52653;50.080;21.992;2023-08-30T05:03:20;97968.58;;;19.33;100.00
65872;BME280;52653;50.080;21.992;2023-08-30T05:06:06;97968.03;;;19.33;100.00
65872;BME280;52653;50.080;21.992;2023-08-30T05:08:57;97964.39;;;19.34;100.00
65872;BME280;52653;50.080;21.992;2023-08-30T05:11:53;97965.44;;;19.34;100.00
65872;BME280;52653;50.080;21.992;2023-08-30T05:14:46;97968.45;;;19.34;100.00
65872;BME280;52653;50.080;21.992;2023-08-30T05:17:40;97974.90;;;19.34;100.00
65872;BME280;52653;50.080;21.992;2023-08-30T05:20:33;97973.17;;;19.33;100.00
65872;BME280;52653;50.080;21.992;2023-08-30T05:23:28;97977.85;;;19.32;100.00
65872;BME280;52653;50.080;21.992;2023-08-30T05:26:21;97975.58;;;19.32;100.00
65872;BME280;52653;50.080;21.992;2023-08-30T05:29:13;97976.52;;;19.34;100.00
65872;BME280;52653;50.080;21.992;2023-08-30T05:32:07;97979.58;;;19.35;100.00
65872;BME280;52653;50.080;21.992;2023-08-30T05:35:00;97980.29;;;19.41;100.00
65872;BME280;52653;50.080;21.992;2023-08-30T05:38:05;97982.70;;;19.46;100.00
65872;BME280;52653;50.080;21.992;2023-08-30T05:40:57;97983.41;;;19.51;100.00
65872;BME280;52653;50.080;21.992;2023-08-30T05:43:51;97985.84;;;19.58;100.00
65872;BME280;52653;50.080;21.992;2023-08-30T05:46:38;97984.68;;;19.65;100.00
65872;BME280;52653;50.080;21.992;2023-08-30T05:49:29;97986.05;;;19.74;100.00
65872;BME280;52653;50.080;21.992;2023-08-30T05:52:21;97984.77;;;19.81;100.00
65872;BME280;52653;50.080;21.992;2023-08-30T05:55:14;97986.54;;;19.89;100.00
65872;BME280;52653;50.080;21.992;2023-08-30T05:58:06;97989.59;;;19.96;100.00
65872;BME280;52653;50.080;21.992;2023-08-30T06:00:59;97986.85;;;20.03;100.00
65872;BME280;52653;50.080;21.992;2023-08-30T06:03:55;97984.02;;;20.08;100.00
65872;BME280;52653;50.080;21.992;2023-08-30T06:06:48;97985.05;;;20.14;100.00
65872;BME280;52653;50.080;21.992;2023-08-30T06:09:34;97986.29;;;20.19;100.00
65872;BME280;52653;50.080;21.992;2023-08-30T06:12:27;97993.61;;;20.27;100.00
65872;BME280;52653;50.080;21.992;2023-08-30T06:15:10;97995.33;;;20.34;100.00
65872;BME280;52653;50.080;21.992;2023-08-30T06:18:02;98002.42;;;20.37;100.00
65872;BME280;52653;50.080;21.992;2023-08-30T06:20:56;98003.45;;;20.40;99.95
65872;BME280;52653;50.080;21.992;2023-08-30T06:23:49;98007.15;;;20.46;99.73
65872;BME280;52653;50.080;21.992;2023-08-30T06:26:45;98010.59;;;20.53;99.85
65872;BME280;52653;50.080;21.992;2023-08-30T06:29:30;98012.66;;;20.60;99.10
65872;BME280;52653;50.080;21.992;2023-08-30T06:32:23;98014.88;;;20.64;98.89
65872;BME280;52653;50.080;21.992;2023-08-30T06:35:16;98013.16;;;20.65;98.19
65872;BME280;52653;50.080;21.992;2023-08-30T06:38:13;98017.94;;;20.63;97.41
65872;BME280;52653;50.080;21.992;2023-08-30T06:41:06;98018.02;;;20.62;97.14
65872;BME280;52653;50.080;21.992;2023-08-30T06:43:59;98017.66;;;20.67;97.17
65872;BME280;52653;50.080;21.992;2023-08-30T06:46:52;98020.64;;;20.68;97.00
65872;BME280;52653;50.080;21.992;2023-08-30T06:49:53;98027.59;;;20.66;96.90
65872;BME280;52653;50.080;21.992;2023-08-30T06:52:46;98029.40;;;20.65;96.78
65872;BME280;52653;50.080;21.992;2023-08-30T06:55:41;98021.35;;;20.68;96.73
65872;BME280;52653;50.080;21.992;2023-08-30T06:58:35;98019.04;;;20.73;96.35
65872;BME280;52653;50.080;21.992;2023-08-30T07:01:30;98021.46;;;20.82;96.63
65872;BME280;52653;50.080;21.992;2023-08-30T07:04:28;98026.78;;;20.96;95.95
65872;BME280;52653;50.080;21.992;2023-08-30T07:07:21;98026.70;;;21.07;95.90
65872;BME280;52653;50.080;21.992;2023-08-30T07:10:13;98025.04;;;21.15;95.14
65872;BME280;52653;50.080;21.992;2023-08-30T07:13:06;98026.84;;;21.20;94.49
65872;BME280;52653;50.080;21.992;2023-08-30T07:15:56;98033.73;;;21.27;94.09
65872;BME280;52653;50.080;21.992;2023-08-30T07:18:49;98033.88;;;21.32;93.62
65872;BME280;52653;50.080;21.992;2023-08-30T07:21:32;98036.00;;;21.38;93.74
65872;BME280;52653;50.080;21.992;2023-08-30T07:24:27;98031.05;;;21.47;93.57
65872;BME280;52653;50.080;21.992;2023-08-30T07:27:22;98034.96;;;21.60;93.29
65872;BME280;52653;50.080;21.992;2023-08-30T07:30:15;98042.02;;;21.76;92.77
65872;BME280;52653;50.080;21.992;2023-08-30T07:33:07;98042.20;;;21.93;92.10
65872;BME280;52653;50.080;21.992;2023-08-30T07:36:00;98043.06;;;22.13;91.12
65872;BME280;52653;50.080;21.992;2023-08-30T07:38:44;98036.61;;;22.30;90.81
65872;BME280;52653;50.080;21.992;2023-08-30T07:41:37;98036.96;;;22.52;90.42
65872;BME280;52653;50.080;21.992;2023-08-30T07:44:30;98036.71;;;22.74;89.59
65872;BME280;52653;50.080;21.992;2023-08-30T07:47:23;98035.69;;;22.95;88.40
65872;BME280;52653;50.080;21.992;2023-08-30T07:49:56;98032.52;;;23.08;87.75
65872;BME280;52653;50.080;21.992;2023-08-30T07:52:49;98029.64;;;23.18;86.75
65872;BME280;52653;50.080;21.992;2023-08-30T07:55:32;98028.47;;;23.26;85.49
65872;BME280;52653;50.080;21.992;2023-08-30T07:58:24;98024.10;;;23.31;85.20
65872;BME280;52653;50.080;21.992;2023-08-30T08:01:17;98027.67;;;23.38;84.58
65872;BME280;52653;50.080;21.992;2023-08-30T08:04:10;98024.38;;;23.45;83.76
65872;BME280;52653;50.080;21.992;2023-08-30T08:07:04;98022.45;;;23.47;82.98
65872;BME280;52653;50.080;21.992;2023-08-30T08:09:48;98023.31;;;23.55;82.93
65872;BME280;52653;50.080;21.992;2023-08-30T08:12:41;98022.00;;;23.63;82.52
65872;BME280;52653;50.080;21.992;2023-08-30T08:15:34;98018.77;;;23.71;82.10
65872;BME280;52653;50.080;21.992;2023-08-30T08:18:27;98016.55;;;23.79;81.38
65872;BME280;52653;50.080;21.992;2023-08-30T08:21:22;98018.36;;;23.85;81.02
65872;BME280;52653;50.080;21.992;2023-08-30T08:24:14;98018.63;;;23.93;80.46
65872;BME280;52653;50.080;21.992;2023-08-30T08:27:10;98013.50;;;23.94;78.80
65872;BME280;52653;50.080;21.992;2023-08-30T08:29:53;98012.22;;;23.97;79.06
65872;BME280;52653;50.080;21.992;2023-08-30T08:32:49;98012.98;;;24.03;78.81
65872;BME280;52653;50.080;21.992;2023-08-30T08:35:42;98009.89;;;24.10;78.68
65872;BME280;52653;50.080;21.992;2023-08-30T08:38:24;98007.30;;;24.16;78.11
65872;BME280;52653;50.080;21.992;2023-08-30T08:41:17;98001.66;;;24.21;77.31
65872;BME280;52653;50.080;21.992;2023-08-30T08:44:10;98002.52;;;24.21;76.71
65872;BME280;52653;50.080;21.992;2023-08-30T08:47:04;98001.98;;;24.22;76.06
65872;BME280;52653;50.080;21.992;2023-08-30T08:49:58;98002.65;;;24.18;75.62
65872;BME280;52653;50.080;21.992;2023-08-30T08:52:51;98001.43;;;24.17;75.72
65872;BME280;52653;50.080;21.992;2023-08-30T08:55:50;98000.30;;;24.24;76.21
65872;BME280;52653;50.080;21.992;2023-08-30T08:58:44;97998.13;;;24.29;75.51
65872;BME280;52653;50.080;21.992;2023-08-30T09:01:38;97998.94;;;24.28;75.16
65872;BME280;52653;50.080;21.992;2023-08-30T09:04:21;97996.43;;;24.25;74.93
65872;BME280;52653;50.080;21.992;2023-08-30T09:07:13;98004.02;;;24.34;75.37
65872;BME280;52653;50.080;21.992;2023-08-30T09:10:00;98007.38;;;24.41;74.62
65872;BME280;52653;50.080;21.992;2023-08-30T09:12:53;98012.50;;;24.48;74.35
65872;BME280;52653;50.080;21.992;2023-08-30T09:15:46;98015.00;;;24.61;73.97
65872;BME280;52653;50.080;21.992;2023-08-30T09:18:39;98012.95;;;24.75;73.47
65872;BME280;52653;50.080;21.992;2023-08-30T09:21:35;98017.24;;;24.92;72.50
65872;BME280;52653;50.080;21.992;2023-08-30T09:24:42;98016.03;;;25.00;71.34
65872;BME280;52653;50.080;21.992;2023-08-30T09:27:35;98025.73;;;25.18;72.05
65872;BME280;52653;50.080;21.992;2023-08-30T09:30:30;98025.05;;;25.33;71.16
65872;BME280;52653;50.080;21.992;2023-08-30T09:33:17;98028.80;;;25.41;70.11
65872;BME280;52653;50.080;21.992;2023-08-30T09:36:12;98031.09;;;25.51;69.53
65872;BME280;52653;50.080;21.992;2023-08-30T09:39:00;98034.27;;;25.65;69.40
65872;BME280;52653;50.080;21.992;2023-08-30T09:41:55;98042.60;;;25.80;69.18
65872;BME280;52653;50.080;21.992;2023-08-30T09:44:48;98038.98;;;25.83;67.80
65872;BME280;52653;50.080;21.992;2023-08-30T09:47:41;98037.77;;;25.84;67.89
65872;BME280;52653;50.080;21.992;2023-08-30T09:50:36;98041.97;;;25.88;67.87
65872;BME280;52653;50.080;21.992;2023-08-30T09:53:31;98051.19;;;25.93;67.42
65872;BME280;52653;50.080;21.992;2023-08-30T09:56:27;98056.95;;;25.91;67.46
65872;BME280;52653;50.080;21.992;2023-08-30T09:59:06;98058.68;;;25.86;67.22
65872;BME280;52653;50.080;21.992;2023-08-30T10:02:04;98061.02;;;25.77;67.65
65872;BME280;52653;50.080;21.992;2023-08-30T10:04:58;98062.91;;;25.68;67.94
65872;BME280;52653;50.080;21.992;2023-08-30T10:07:45;98065.80;;;25.51;67.47
65872;BME280;52653;50.080;21.992;2023-08-30T10:10:40;98065.40;;;25.27;67.37
65872;BME280;52653;50.080;21.992;2023-08-30T10:13:34;98059.20;;;25.11;68.34
65872;BME280;52653;50.080;21.992;2023-08-30T10:16:34;98060.23;;;25.08;69.25
65872;BME280;52653;50.080;21.992;2023-08-30T10:19:30;98058.81;;;25.16;69.84
65872;BME280;52653;50.080;21.992;2023-08-30T10:22:24;98058.64;;;25.26;69.18
65872;BME280;52653;50.080;21.992;2023-08-30T10:25:11;98058.94;;;25.41;68.86
65872;BME280;52653;50.080;21.992;2023-08-30T10:28:09;98055.16;;;25.76;68.65
65872;BME280;52653;50.080;21.992;2023-08-30T10:31:06;98053.21;;;26.18;66.81
65872;BME280;52653;50.080;21.992;2023-08-30T10:33:50;98047.40;;;26.43;65.53
65872;BME280;52653;50.080;21.992;2023-08-30T10:36:58;98046.92;;;26.52;62.68
65872;BME280;52653;50.080;21.992;2023-08-30T10:39:52;98041.44;;;26.45;62.08
65872;BME280;52653;50.080;21.992;2023-08-30T10:42:36;98039.29;;;26.43;62.88
65872;BME280;52653;50.080;21.992;2023-08-30T10:45:09;98038.31;;;26.58;63.00
65872;BME280;52653;50.080;21.992;2023-08-30T10:48:05;98037.20;;;26.68;62.97
65872;BME280;52653;50.080;21.992;2023-08-30T10:50:50;98034.76;;;26.86;63.16
65872;BME280;52653;50.080;21.992;2023-08-30T10:53:43;98027.16;;;27.10;62.80
65872;BME280;52653;50.080;21.992;2023-08-30T10:56:35;98024.23;;;27.29;61.78
65872;BME280;52653;50.080;21.992;2023-08-30T10:59:22;98021.61;;;27.45;61.02
65872;BME280;52653;50.080;21.992;2023-08-30T11:02:16;98017.77;;;27.46;59.92
65872;BME280;52653;50.080;21.992;2023-08-30T11:05:10;98019.17;;;27.63;60.43
65872;BME280;52653;50.080;21.992;2023-08-30T11:07:59;98009.95;;;27.77;58.12
65872;BME280;52653;50.080;21.992;2023-08-30T11:11:02;98005.67;;;27.95;58.95
65872;BME280;52653;50.080;21.992;2023-08-30T11:13:46;98005.06;;;28.04;58.33
65872;BME280;52653;50.080;21.992;2023-08-30T11:16:40;98004.27;;;28.07;57.49
65872;BME280;52653;50.080;21.992;2023-08-30T11:19:33;98007.34;;;28.22;58.41
65872;BME280;52653;50.080;21.992;2023-08-30T11:22:26;98004.98;;;28.45;59.03
65872;BME280;52653;50.080;21.992;2023-08-30T11:25:12;98001.19;;;28.62;58.04
65872;BME280;52653;50.080;21.992;2023-08-30T11:28:04;97997.89;;;28.71;56.12
65872;BME280;52653;50.080;21.992;2023-08-30T11:30:58;97994.30;;;28.70;55.50
65872;BME280;52653;50.080;21.992;2023-08-30T11:33:56;97995.13;;;28.59;54.83
65872;BME280;52653;50.080;21.992;2023-08-30T11:36:49;97993.50;;;28.55;55.48
65872;BME280;52653;50.080;21.992;2023-08-30T11:39:35;97993.91;;;28.58;55.96
65872;BME280;52653;50.080;21.992;2023-08-30T11:42:19;97990.62;;;28.71;55.65
65872;BME280;52653;50.080;21.992;2023-08-30T11:45:15;97990.39;;;28.90;55.19
65872;BME280;52653;50.080;21.992;2023-08-30T11:47:57;97989.57;;;28.94;54.13
65872;BME280;52653;50.080;21.992;2023-08-30T11:50:50;97983.64;;;28.94;53.75
65872;BME280;52653;50.080;21.992;2023-08-30T11:53:44;97984.08;;;29.07;53.55
65872;BME280;52653;50.080;21.992;2023-08-30T11:56:37;97975.96;;;29.26;53.96
65872;BME280;52653;50.080;21.992;2023-08-30T11:59:21;97975.38;;;29.42;53.13
65872;BME280;52653;50.080;21.992;2023-08-30T12:02:17;97975.24;;;29.43;52.96
65872;BME280;52653;50.080;21.992;2023-08-30T12:04:57;97980.02;;;29.25;52.02
65872;BME280;52653;50.080;21.992;2023-08-30T12:07:34;97981.86;;;29.11;53.18
65872;BME280;52653;50.080;21.992;2023-08-30T12:10:31;97979.89;;;29.06;53.11
65872;BME280;52653;50.080;21.992;2023-08-30T12:13:25;97977.34;;;28.96;53.19
65872;BME280;52653;50.080;21.992;2023-08-30T12:15:59;97976.24;;;28.81;53.35
65872;BME280;52653;50.080;21.992;2023-08-30T12:18:52;97978.98;;;28.78;53.31
65872;BME280;52653;50.080;21.992;2023-08-30T12:21:46;97972.39;;;28.77;52.84
65872;BME280;52653;50.080;21.992;2023-08-30T12:24:44;97974.45;;;28.82;53.70
65872;BME280;52653;50.080;21.992;2023-08-30T12:27:39;97978.70;;;28.93;53.40
65872;BME280;52653;50.080;21.992;2023-08-30T12:30:31;97977.25;;;28.97;53.00
65872;BME280;52653;50.080;21.992;2023-08-30T12:33:17;97976.79;;;29.04;52.94
65872;BME280;52653;50.080;21.992;2023-08-30T12:35:59;97973.30;;;29.14;52.63
65872;BME280;52653;50.080;21.992;2023-08-30T12:38:35;97967.42;;;29.15;51.86
65872;BME280;52653;50.080;21.992;2023-08-30T12:41:27;97958.51;;;29.20;51.63
65872;BME280;52653;50.080;21.992;2023-08-30T12:44:13;97954.66;;;29.18;51.76
65872;BME280;52653;50.080;21.992;2023-08-30T12:47:05;97947.67;;;29.20;51.75
65872;BME280;52653;50.080;21.992;2023-08-30T12:49:58;97946.78;;;29.27;52.37
65872;BME280;52653;50.080;21.992;2023-08-30T12:52:34;97943.87;;;29.31;52.17
65872;BME280;52653;50.080;21.992;2023-08-30T12:55:10;97944.48;;;29.30;51.53
65872;BME280;52653;50.080;21.992;2023-08-30T12:57:57;97936.91;;;29.15;50.82
65872;BME280;52653;50.080;21.992;2023-08-30T13:00:32;97929.89;;;28.93;51.32
65872;BME280;52653;50.080;21.992;2023-08-30T13:03:06;97928.33;;;28.77;51.56
65872;BME280;52653;50.080;21.992;2023-08-30T13:05:58;97922.23;;;28.75;51.17
65872;BME280;52653;50.080;21.992;2023-08-30T13:08:35;97917.70;;;28.64;51.88
65872;BME280;52653;50.080;21.992;2023-08-30T13:11:19;97913.22;;;28.55;52.64
65872;BME280;52653;50.080;21.992;2023-08-30T13:13:53;97909.27;;;28.55;52.46
65872;BME280;52653;50.080;21.992;2023-08-30T13:16:38;97913.67;;;28.69;53.00
65872;BME280;52653;50.080;21.992;2023-08-30T13:19:32;97916.88;;;28.85;52.78
65872;BME280;52653;50.080;21.992;2023-08-30T13:22:15;97914.10;;;28.91;51.53
65872;BME280;52653;50.080;21.992;2023-08-30T13:24:50;97916.48;;;28.89;51.08
65872;BME280;52653;50.080;21.992;2023-08-30T13:27:26;97920.02;;;28.81;50.99
65872;BME280;52653;50.080;21.992;2023-08-30T13:30:00;97918.84;;;28.82;51.30
65872;BME280;52653;50.080;21.992;2023-08-30T13:32:54;97922.94;;;28.77;51.09
65872;BME280;52653;50.080;21.992;2023-08-30T13:35:30;97927.55;;;28.65;50.92
65872;BME280;52653;50.080;21.992;2023-08-30T13:38:15;97930.71;;;28.54;51.41
65872;BME280;52653;50.080;21.992;2023-08-30T13:40:49;97927.86;;;28.48;51.90
65872;BME280;52653;50.080;21.992;2023-08-30T13:43:32;97926.45;;;28.51;52.24
65872;BME280;52653;50.080;21.992;2023-08-30T13:46:15;97925.42;;;28.54;52.66
65872;BME280;52653;50.080;21.992;2023-08-30T13:48:51;97924.72;;;28.49;52.00
65872;BME280;52653;50.080;21.992;2023-08-30T13:51:27;97924.98;;;28.52;52.88
65872;BME280;52653;50.080;21.992;2023-08-30T13:54:05;97934.42;;;28.53;52.24
65872;BME280;52653;50.080;21.992;2023-08-30T13:56:40;97935.67;;;28.53;52.66
65872;BME280;52653;50.080;21.992;2023-08-30T13:59:27;97941.04;;;28.52;51.94
65872;BME280;52653;50.080;21.992;2023-08-30T14:02:22;97946.42;;;28.52;52.26
65872;BME280;52653;50.080;21.992;2023-08-30T14:05:09;97948.84;;;28.62;52.49
65872;BME280;52653;50.080;21.992;2023-08-30T14:07:53;97951.53;;;28.69;52.58
65872;BME280;52653;50.080;21.992;2023-08-30T14:10:29;97950.65;;;28.68;52.31
65872;BME280;52653;50.080;21.992;2023-08-30T14:13:22;97952.80;;;28.70;52.27
65872;BME280;52653;50.080;21.992;2023-08-30T14:16:17;97954.86;;;28.65;52.46
65872;BME280;52653;50.080;21.992;2023-08-30T14:18:50;97955.77;;;28.54;52.05
65872;BME280;52653;50.080;21.992;2023-08-30T14:21:33;97954.27;;;28.46;52.38
65872;BME280;52653;50.080;21.992;2023-08-30T14:24:15;97944.98;;;28.43;52.22
65872;BME280;52653;50.080;21.992;2023-08-30T14:27:08;97938.60;;;28.36;52.03
65872;BME280;52653;50.080;21.992;2023-08-30T14:29:53;97940.78;;;28.24;52.18
65872;BME280;52653;50.080;21.992;2023-08-30T14:32:46;97939.38;;;28.08;52.46
65872;BME280;52653;50.080;21.992;2023-08-30T14:35:43;97934.73;;;27.97;52.97
65872;BME280;52653;50.080;21.992;2023-08-30T14:38:37;97939.27;;;27.84;53.00
65872;BME280;52653;50.080;21.992;2023-08-30T14:41:30;97941.36;;;27.69;54.08